Time;durP1;ratioP1;P1;durP2;ratioP2;P2;SDS_P1;SDS_P2;PMS_P1;PMS_P2;Temp;Humidity;BMP_temperature;BMP_pressure;BME280_temperature;BME280_humidity;BME280_pressure;Samples;Min_cycle;Max_cycle;Signal;HPM_P1;HPM_P2
2023/03/01 00:01:08;;;;;;;18.63;9.60;;;-2.80;99.90;;;;;;4993545;28;20466;-62
2023/03/01 00:03:34;;;;;;;17.00;7.90;;;-2.80;99.90;;;;;;4992461;28;20411;-63
2023/03/01 00:06:00;;;;;;;22.40;8.83;;;-2.80;99.90;;;;;;4992356;28;20502;-62
2023/03/01 00:08:26;;;;;;;24.57;8.53;;;-2.80;99.90;;;;;;4993054;28;20211;-62
2023/03/01 00:11:13;;;;;;;14.33;8.13;;;-2.90;99.90;;;;;;4992648;28;20423;-63
2023/03/01 00:13:38;;;;;;;20.43;9.97;;;-2.80;99.90;;;;;;4987884;28;20419;-63
2023/03/01 00:16:17;;;;;;;20.00;9.40;;;-2.90;99.90;;;;;;4992310;28;20473;-62
2023/03/01 00:18:43;;;;;;;20.27;9.13;;;-2.90;99.90;;;;;;4992555;28;20251;-63
2023/03/01 00:21:09;;;;;;;19.23;8.30;;;-2.90;99.90;;;;;;4991910;28;20471;-63
2023/03/01 00:23:36;;;;;;;20.80;7.97;;;-2.90;99.90;;;;;;4986894;28;20450;-63
2023/03/01 00:26:02;;;;;;;16.90;8.23;;;-2.90;99.90;;;;;;4991477;28;20180;-62
2023/03/01 00:28:27;;;;;;;21.80;9.83;;;-2.90;99.90;;;;;;4992516;28;20423;-63
2023/03/01 00:30:53;;;;;;;27.90;9.50;;;-3.00;99.90;;;;;;4992440;28;20522;-62
2023/03/01 00:33:18;;;;;;;20.97;9.07;;;-3.00;99.90;;;;;;4991141;28;20186;-62
2023/03/01 00:35:44;;;;;;;41.60;9.40;;;-3.10;99.90;;;;;;4991946;28;20687;-63
2023/03/01 00:38:10;;;;;;;16.80;8.63;;;-3.10;99.90;;;;;;4991997;28;20678;-63
2023/03/01 00:40:36;;;;;;;17.20;8.30;;;-3.10;99.90;;;;;;4992115;28;20250;-63
2023/03/01 00:43:03;;;;;;;17.37;7.33;;;-3.10;99.90;;;;;;4990855;28;20505;-63
2023/03/01 00:45:30;;;;;;;17.33;8.30;;;-3.10;99.90;;;;;;4991189;28;20425;-63
2023/03/01 00:47:56;;;;;;;14.70;7.63;;;-3.10;99.90;;;;;;4991766;28;21034;-63
2023/03/01 00:50:22;;;;;;;20.87;8.30;;;-3.10;99.90;;;;;;4991726;28;20426;-63
2023/03/01 00:52:51;;;;;;;16.77;7.33;;;-3.20;99.90;;;;;;4991477;28;20210;-63
2023/03/01 00:55:17;;;;;;;25.30;8.43;;;-3.20;99.90;;;;;;4991693;28;20260;-62
2023/03/01 00:57:42;;;;;;;13.20;6.77;;;-3.20;99.90;;;;;;4991814;28;20430;-63
2023/03/01 01:00:09;;;;;;;17.90;7.70;;;-3.30;99.90;;;;;;4991909;28;20176;-62
2023/03/01 01:02:35;;;;;;;15.33;8.07;;;-3.30;99.90;;;;;;4990765;28;20215;-62
2023/03/01 01:05:01;;;;;;;22.70;8.47;;;-3.30;99.90;;;;;;4991504;28;20485;-63
2023/03/01 01:07:26;;;;;;;20.37;8.57;;;-3.30;99.90;;;;;;4991651;28;20418;-62
2023/03/01 01:09:52;;;;;;;14.33;8.60;;;-3.30;99.90;;;;;;4987770;28;20274;-62
2023/03/01 01:12:17;;;;;;;17.77;8.67;;;-3.40;99.90;;;;;;4990918;28;20223;-63
2023/03/01 01:14:43;;;;;;;19.23;8.53;;;-3.40;99.90;;;;;;4986440;28;20179;-63
2023/03/01 01:17:09;;;;;;;17.77;8.43;;;-3.40;99.90;;;;;;4991248;28;20207;-63
2023/03/01 01:19:34;;;;;;;18.10;8.23;;;-3.40;99.90;;;;;;4991446;28;20184;-62
2023/03/01 01:22:00;;;;;;;14.80;7.60;;;-3.50;99.90;;;;;;4990922;28;20215;-63
2023/03/01 01:24:26;;;;;;;19.43;9.23;;;-3.50;99.90;;;;;;4991183;28;20609;-63
2023/03/01 01:26:51;;;;;;;15.20;8.23;;;-3.50;99.90;;;;;;4991423;28;20279;-62
2023/03/01 01:29:17;;;;;;;16.20;8.17;;;-3.50;99.90;;;;;;4991870;28;20184;-63
2023/03/01 01:31:43;;;;;;;15.70;6.33;;;-3.50;99.90;;;;;;4991276;28;20621;-62
2023/03/01 01:34:15;;;;;;;23.33;7.20;;;-3.60;99.90;;;;;;4991740;28;20223;-63
2023/03/01 01:36:40;;;;;;;20.07;7.37;;;-3.60;99.90;;;;;;4991966;28;20423;-63
2023/03/01 01:39:07;;;;;;;12.47;6.43;;;-3.70;99.90;;;;;;4991868;28;20418;-63
2023/03/01 01:41:33;;;;;;;16.93;7.07;;;-3.70;99.90;;;;;;4991609;28;20287;-63
2023/03/01 01:44:10;;;;;;;15.73;7.37;;;-3.70;99.90;;;;;;4991717;28;20752;-63
2023/03/01 01:46:40;;;;;;;24.33;8.90;;;-3.70;99.90;;;;;;4990775;28;20498;-63
2023/03/01 01:49:24;;;;;;;1.70;0.80;;;-3.60;99.90;;;;;;4991502;28;20461;-63
2023/03/01 01:51:53;;;;;;;20.03;8.70;;;-3.70;99.90;;;;;;4990218;28;20465;-63
2023/03/01 01:54:25;;;;;;;14.27;7.27;;;-3.70;99.90;;;;;;4991857;28;20415;-63
2023/03/01 01:57:00;;;;;;;17.33;8.43;;;-3.80;99.90;;;;;;4998149;28;20437;-63
2023/03/01 01:59:28;;;;;;;1.30;0.67;;;-3.80;99.90;;;;;;4996604;28;20751;-63
2023/03/01 02:01:54;;;;;;;1.10;0.60;;;-3.90;99.90;;;;;;4997080;28;20775;-63
2023/03/01 02:04:21;;;;;;;18.70;7.30;;;-3.90;99.90;;;;;;4998256;28;20427;-64
2023/03/01 02:07:06;;;;;;;21.30;8.20;;;-3.90;99.90;;;;;;4998084;28;20411;-63
2023/03/01 02:09:34;;;;;;;16.27;7.27;;;-3.90;99.90;;;;;;4995812;28;20756;-63
2023/03/01 02:12:00;;;;;;;21.37;8.03;;;-3.90;99.90;;;;;;4997709;28;20469;-63
2023/03/01 02:14:26;;;;;;;1.30;0.53;;;-3.80;99.90;;;;;;4998374;28;21040;-63
2023/03/01 02:16:52;;;;;;;1.00;0.40;;;-3.80;99.90;;;;;;4997733;28;20493;-63
2023/03/01 02:19:43;;;;;;;14.10;6.40;;;-3.70;99.90;;;;;;4997838;28;20187;-63
2023/03/01 02:22:27;;;;;;;13.90;7.07;;;-3.70;99.90;;;;;;4993909;28;20204;-62
2023/03/01 02:25:20;;;;;;;17.90;7.40;;;-3.60;99.90;;;;;;4996431;28;20426;-63
2023/03/01 02:27:51;;;;;;;13.67;6.87;;;-3.50;99.90;;;;;;4992721;28;20415;-63
2023/03/01 02:30:18;;;;;;;20.13;8.30;;;-3.50;99.90;;;;;;4981170;28;20434;-63
2023/03/01 02:32:44;;;;;;;16.60;8.30;;;-3.40;99.90;;;;;;4996353;28;20488;-63
2023/03/01 02:35:15;;;;;;;16.47;7.30;;;-3.30;99.90;;;;;;4996369;28;20758;-63
2023/03/01 02:37:42;;;;;;;23.47;7.73;;;-3.20;99.90;;;;;;4997647;28;20446;-63
2023/03/01 02:40:17;;;;;;;20.23;8.50;;;-3.10;99.90;;;;;;4997053;28;20479;-63
2023/03/01 02:43:10;;;;;;;1.20;0.80;;;-3.10;99.90;;;;;;4996812;28;20481;-63
2023/03/01 02:45:35;;;;;;;15.90;7.37;;;-3.00;99.90;;;;;;4989513;28;20481;-63
2023/03/01 02:48:01;;;;;;;17.40;8.80;;;-2.90;99.90;;;;;;4997607;28;20426;-63
2023/03/01 02:50:29;;;;;;;16.27;7.23;;;-2.90;99.90;;;;;;4997163;28;20214;-63
2023/03/01 02:53:23;;;;;;;22.80;7.57;;;-2.80;99.90;;;;;;4996785;28;20221;-63
2023/03/01 02:55:49;;;;;;;49.20;8.47;;;-2.80;99.90;;;;;;4992260;28;20473;-63
2023/03/01 02:58:15;;;;;;;18.57;8.80;;;-2.70;99.90;;;;;;4997041;28;20990;-63
2023/03/01 03:00:46;;;;;;;16.50;7.20;;;-2.70;99.90;;;;;;4996797;28;20513;-63
2023/03/01 03:03:17;;;;;;;21.83;8.53;;;-2.70;99.90;;;;;;4996426;28;20254;-63
2023/03/01 03:05:43;;;;;;;15.23;7.37;;;-2.60;99.90;;;;;;4996659;28;20423;-63
2023/03/01 03:08:09;;;;;;;17.73;8.10;;;-2.60;99.90;;;;;;4993317;28;20430;-63
2023/03/01 03:10:40;;;;;;;15.40;7.00;;;-2.60;99.90;;;;;;4993872;28;20258;-63
2023/03/01 03:13:12;;;;;;;16.10;7.07;;;-2.50;99.90;;;;;;4993593;28;20664;-63
2023/03/01 03:15:38;;;;;;;17.00;7.23;;;-2.50;99.90;;;;;;4993397;28;20446;-63
2023/03/01 03:18:08;;;;;;;16.70;7.70;;;-2.50;99.90;;;;;;4993406;28;20559;-62
2023/03/01 03:20:34;;;;;;;13.53;7.23;;;-2.50;99.90;;;;;;4993342;28;20434;-62
2023/03/01 03:23:00;;;;;;;15.90;8.00;;;-2.50;99.90;;;;;;4993456;28;20578;-62
2023/03/01 03:25:27;;;;;;;22.47;7.70;;;-2.40;99.90;;;;;;4993346;28;21155;-62
2023/03/01 03:27:56;;;;;;;21.27;9.03;;;-2.40;99.90;;;;;;4993773;28;20184;-62
2023/03/01 03:30:23;;;;;;;13.60;7.80;;;-2.40;99.90;;;;;;4992614;28;20426;-63
2023/03/01 03:32:52;;;;;;;19.83;9.13;;;-2.30;99.90;;;;;;4993004;28;20427;-63
2023/03/01 03:35:29;;;;;;;15.37;8.20;;;-2.30;99.90;;;;;;4992897;28;20457;-63
2023/03/01 03:38:02;;;;;;;24.57;9.40;;;-2.20;99.90;;;;;;4993934;28;20509;-63
2023/03/01 03:40:36;;;;;;;15.57;7.57;;;-2.20;99.90;;;;;;4991596;28;20438;-63
2023/03/01 03:43:05;;;;;;;22.47;8.90;;;-2.10;99.90;;;;;;4992940;28;20560;-63
2023/03/01 03:45:33;;;;;;;19.37;8.63;;;-2.10;99.90;;;;;;4993633;28;20811;-63
2023/03/01 03:48:02;;;;;;;17.43;8.50;;;-2.10;99.90;;;;;;4992921;28;20429;-63
2023/03/01 03:50:28;;;;;;;16.43;6.53;;;-2.00;99.90;;;;;;4992903;28;20808;-63
2023/03/01 03:52:54;;;;;;;20.40;8.63;;;-1.90;99.90;;;;;;4992226;28;20450;-63
2023/03/01 03:55:19;;;;;;;18.97;7.70;;;-1.90;99.90;;;;;;4991899;28;20180;-63
2023/03/01 03:57:51;;;;;;;17.40;7.70;;;-1.90;99.90;;;;;;4992587;28;20215;-63
2023/03/01 04:00:19;;;;;;;15.47;7.00;;;-1.80;99.90;;;;;;4992557;28;20194;-63
2023/03/01 04:02:45;;;;;;;21.40;8.90;;;-1.80;99.90;;;;;;4991215;28;20463;-63
2023/03/01 04:05:14;;;;;;;16.80;7.90;;;-1.80;99.90;;;;;;4992164;28;20418;-63
2023/03/01 04:07:40;;;;;;;11.87;6.70;;;-1.80;99.90;;;;;;4992277;28;20422;-63
2023/03/01 04:10:11;;;;;;;15.03;7.47;;;-1.80;99.90;;;;;;4992134;28;20792;-63
2023/03/01 04:12:36;;;;;;;19.20;8.63;;;-1.70;99.90;;;;;;4991891;28;20419;-63
2023/03/01 04:15:12;;;;;;;16.67;8.03;;;-1.70;99.90;;;;;;4992166;28;20796;-63
2023/03/01 04:17:42;;;;;;;18.60;8.80;;;-1.60;99.90;;;;;;4988766;28;20738;-63
2023/03/01 04:20:24;;;;;;;17.83;8.10;;;-1.60;99.90;;;;;;4991921;28;20505;-62
2023/03/01 04:22:51;;;;;;;21.67;8.37;;;-1.60;99.90;;;;;;4989061;28;20462;-63
2023/03/01 04:25:17;;;;;;;19.07;8.80;;;-1.50;99.90;;;;;;4990763;28;20438;-63
2023/03/01 04:27:43;;;;;;;16.90;7.83;;;-1.50;99.90;;;;;;4991413;28;20442;-63
2023/03/01 04:30:10;;;;;;;17.37;7.60;;;-1.50;99.90;;;;;;4992232;28;20180;-63
2023/03/01 04:32:35;;;;;;;22.47;7.73;;;-1.50;99.90;;;;;;4991342;28;20621;-62
2023/03/01 04:35:01;;;;;;;13.33;7.60;;;-1.40;99.90;;;;;;4991573;28;20470;-63
2023/03/01 04:37:27;;;;;;;19.70;8.70;;;-1.40;99.90;;;;;;4991531;28;20187;-63
2023/03/01 04:39:53;;;;;;;23.33;10.27;;;-1.40;99.90;;;;;;4991913;28;20206;-63
2023/03/01 04:42:18;;;;;;;16.90;7.60;;;-1.40;99.90;;;;;;4991066;28;20508;-63
2023/03/01 04:44:45;;;;;;;21.87;7.73;;;-1.40;99.90;;;;;;4991933;28;20208;-62
2023/03/01 04:47:11;;;;;;;17.60;7.70;;;-1.30;99.90;;;;;;4991152;28;20588;-63
2023/03/01 04:49:37;;;;;;;19.47;10.13;;;-1.30;99.90;;;;;;4990936;28;20900;-62
2023/03/01 04:52:03;;;;;;;16.10;8.53;;;-1.30;99.90;;;;;;4988219;28;20450;-63
2023/03/01 04:54:33;;;;;;;17.57;7.60;;;-1.30;99.90;;;;;;4991378;28;20195;-63
2023/03/01 04:57:00;;;;;;;21.97;8.90;;;-1.30;99.90;;;;;;4991536;28;20497;-63
2023/03/01 04:59:26;;;;;;;16.73;7.67;;;-1.30;99.90;;;;;;4989870;28;20453;-62
2023/03/01 05:01:56;;;;;;;13.90;7.77;;;-1.30;99.90;;;;;;4990596;28;20496;-63
2023/03/01 05:04:24;;;;;;;17.63;9.20;;;-1.30;99.90;;;;;;4988624;28;20255;-62
2023/03/01 05:06:50;;;;;;;21.40;9.07;;;-1.30;99.90;;;;;;4985671;28;20949;-63
2023/03/01 05:09:17;;;;;;;13.83;8.00;;;-1.30;99.90;;;;;;4988574;28;20443;-63
2023/03/01 05:11:42;;;;;;;19.77;8.73;;;-1.30;99.90;;;;;;4988516;28;20492;-63
2023/03/01 05:14:09;;;;;;;12.40;7.33;;;-1.20;99.90;;;;;;4988065;28;20913;-63
2023/03/01 05:16:36;;;;;;;15.33;7.53;;;-1.20;99.90;;;;;;4987600;28;20184;-62
2023/03/01 05:19:11;;;;;;;18.17;9.23;;;-1.20;99.90;;;;;;4990215;28;20411;-62
2023/03/01 05:22:01;;;;;;;20.70;8.20;;;-1.20;99.90;;;;;;4990233;28;20465;-62
2023/03/01 05:24:23;;;;;;;20.20;9.40;;;-1.20;99.90;;;;;;4991203;28;20878;-63
2023/03/01 05:26:51;;;;;;;19.13;8.60;;;-1.20;99.90;;;;;;4990782;28;20446;-62
2023/03/01 05:29:17;;;;;;;19.77;9.60;;;-1.20;99.90;;;;;;4974130;28;20427;-63
2023/03/01 05:31:43;;;;;;;25.93;7.13;;;-1.10;99.90;;;;;;4990069;28;20433;-62
2023/03/01 05:34:09;;;;;;;18.37;8.80;;;-1.10;99.90;;;;;;4991509;28;20422;-62
2023/03/01 05:36:34;;;;;;;12.27;7.03;;;-1.10;99.90;;;;;;4990604;28;20179;-63
2023/03/01 05:39:00;;;;;;;17.40;8.53;;;-1.10;99.90;;;;;;4991046;28;20282;-63
2023/03/01 05:41:26;;;;;;;21.97;9.17;;;-1.10;99.90;;;;;;4990999;28;20198;-62
2023/03/01 05:43:52;;;;;;;20.30;8.90;;;-1.10;99.90;;;;;;4990624;28;20319;-63
2023/03/01 05:46:18;;;;;;;18.17;8.60;;;-1.10;99.90;;;;;;4990470;28;20494;-62
2023/03/01 05:48:43;;;;;;;29.23;9.73;;;-1.10;99.90;;;;;;4991136;28;20184;-62
2023/03/01 05:51:09;;;;;;;16.73;8.47;;;-1.10;99.90;;;;;;4990548;28;20543;-63
2023/03/01 05:53:35;;;;;;;23.17;9.30;;;-1.10;99.90;;;;;;4991025;28;20356;-62
2023/03/01 05:56:03;;;;;;;14.73;7.63;;;-1.10;99.90;;;;;;4991009;28;20180;-62
2023/03/01 05:58:29;;;;;;;18.20;8.87;;;-1.00;99.90;;;;;;4990695;28;20250;-62
2023/03/01 06:00:54;;;;;;;19.47;8.80;;;-1.00;99.90;;;;;;4990190;28;20543;-62
2023/03/01 06:03:20;;;;;;;17.73;8.97;;;-1.10;99.90;;;;;;4990376;28;20803;-63
2023/03/01 06:05:46;;;;;;;16.80;7.33;;;-1.00;99.90;;;;;;4989730;28;20183;-62
2023/03/01 06:08:12;;;;;;;17.77;9.20;;;-1.00;99.90;;;;;;4990700;28;20292;-63
2023/03/01 06:10:38;;;;;;;21.13;9.63;;;-0.90;99.90;;;;;;4990458;28;20648;-62
2023/03/01 06:13:04;;;;;;;23.70;8.20;;;-0.90;99.90;;;;;;4989775;28;20426;-62
2023/03/01 06:15:30;;;;;;;17.87;8.90;;;-0.90;99.90;;;;;;4990245;28;20434;-62
2023/03/01 06:17:58;;;;;;;23.27;8.83;;;-0.90;99.90;;;;;;4990274;28;20219;-62
2023/03/01 06:20:26;;;;;;;24.03;8.40;;;-0.80;99.90;;;;;;4990506;28;20187;-63
2023/03/01 06:22:52;;;;;;;21.00;9.50;;;-0.80;99.90;;;;;;4989955;28;20475;-62
2023/03/01 06:25:20;;;;;;;16.67;8.13;;;-0.80;99.90;;;;;;4982674;28;20435;-62
2023/03/01 06:27:46;;;;;;;22.30;9.47;;;-0.90;99.90;;;;;;4989576;28;20176;-62
2023/03/01 06:30:14;;;;;;;22.33;9.53;;;-0.80;99.90;;;;;;4990660;28;20433;-62
2023/03/01 06:32:43;;;;;;;21.13;8.33;;;-0.80;99.90;;;;;;4989624;28;20820;-63
2023/03/01 06:35:14;;;;;;;17.90;9.20;;;-0.80;99.90;;;;;;4987192;28;20545;-62
2023/03/01 06:37:41;;;;;;;17.00;7.80;;;-0.70;99.90;;;;;;4990566;28;20474;-62
2023/03/01 06:40:11;;;;;;;17.13;8.70;;;-0.70;99.90;;;;;;4990874;28;20450;-62
2023/03/01 06:42:38;;;;;;;19.87;8.07;;;-0.70;99.90;;;;;;4991703;28;20477;-62
2023/03/01 06:45:05;;;;;;;21.60;9.20;;;-0.60;99.90;;;;;;4990648;28;20426;-62
2023/03/01 06:47:32;;;;;;;20.30;9.70;;;-0.60;99.90;;;;;;4994094;28;20759;-62
2023/03/01 06:49:58;;;;;;;27.10;11.03;;;-0.60;99.90;;;;;;4993513;28;20441;-62
2023/03/01 06:52:24;;;;;;;15.83;7.63;;;-0.60;99.90;;;;;;4992324;28;20982;-62
2023/03/01 06:54:50;;;;;;;26.07;10.40;;;-0.50;99.90;;;;;;4992198;28;20497;-62
2023/03/01 06:57:16;;;;;;;19.77;9.47;;;-0.50;99.90;;;;;;4992046;28;20215;-62
2023/03/01 06:59:41;;;;;;;17.87;8.00;;;-0.50;99.90;;;;;;4992512;28;20210;-62
2023/03/01 07:02:11;;;;;;;17.83;8.63;;;-0.50;99.90;;;;;;4991757;28;20692;-63
2023/03/01 07:04:36;;;;;;;19.40;9.50;;;-0.40;99.90;;;;;;4992978;28;20184;-62
2023/03/01 07:07:02;;;;;;;17.40;8.63;;;-0.40;99.90;;;;;;4992742;28;20430;-62
2023/03/01 07:09:27;;;;;;;18.53;8.77;;;-0.30;99.90;;;;;;4993853;28;20262;-63
2023/03/01 07:11:53;;;;;;;23.50;8.83;;;-0.40;99.90;;;;;;4993355;28;20195;-62
2023/03/01 07:14:19;;;;;;;19.47;8.83;;;-0.40;99.90;;;;;;4993734;28;20483;-63
2023/03/01 07:16:45;;;;;;;20.53;8.73;;;-0.40;99.90;;;;;;4992517;28;20180;-62
2023/03/01 07:19:11;;;;;;;18.43;9.07;;;-0.40;99.90;;;;;;4993621;28;20450;-63
2023/03/01 07:21:38;;;;;;;20.57;9.40;;;-0.30;99.90;;;;;;4992974;28;20458;-62
2023/03/01 07:24:08;;;;;;;20.97;8.43;;;-0.20;99.90;;;;;;4993849;28;20919;-62
2023/03/01 07:26:34;;;;;;;21.17;8.33;;;-0.10;99.90;;;;;;4993994;28;20420;-62
2023/03/01 07:29:00;;;;;;;16.20;8.80;;;-0.10;99.90;;;;;;4993780;28;20506;-62
2023/03/01 07:31:27;;;;;;;20.03;9.13;;;0.00;99.90;;;;;;4993244;28;20269;-62
2023/03/01 07:33:54;;;;;;;21.53;9.23;;;0.10;99.90;;;;;;4993231;28;20423;-62
2023/03/01 07:36:20;;;;;;;21.43;9.13;;;0.20;99.90;;;;;;4992902;28;20434;-62
2023/03/01 07:38:45;;;;;;;23.23;7.43;;;0.20;99.90;;;;;;4993395;28;20427;-62
2023/03/01 07:41:11;;;;;;;26.10;9.67;;;0.40;99.90;;;;;;4993481;28;20201;-62
2023/03/01 07:43:36;;;;;;;21.60;7.90;;;0.50;99.90;;;;;;4988906;28;20208;-63
2023/03/01 07:46:03;;;;;;;14.30;8.10;;;0.50;99.90;;;;;;4992471;28;20188;-62
2023/03/01 07:48:29;;;;;;;22.03;8.80;;;0.60;99.90;;;;;;4993525;28;20180;-62
2023/03/01 07:50:58;;;;;;;25.13;9.20;;;0.90;99.90;;;;;;4992604;28;20422;-62
2023/03/01 07:53:24;;;;;;;20.43;9.13;;;1.20;99.90;;;;;;4990031;28;20485;-63
2023/03/01 07:55:59;;;;;;;15.77;7.57;;;1.40;99.40;;;;;;4991096;28;20773;-63
2023/03/01 07:58:25;;;;;;;15.67;7.93;;;1.70;98.80;;;;;;4990295;28;20223;-63
2023/03/01 08:00:50;;;;;;;18.37;7.50;;;2.10;98.40;;;;;;4990906;28;20517;-63
2023/03/01 08:03:16;;;;;;;19.13;7.47;;;2.50;97.40;;;;;;4992431;28;20220;-63
2023/03/01 08:05:41;;;;;;;20.50;8.27;;;2.80;96.60;;;;;;4992749;28;20176;-63
2023/03/01 08:08:07;;;;;;;16.10;9.43;;;3.10;96.20;;;;;;4992774;28;20637;-64
2023/03/01 08:10:32;;;;;;;17.90;8.93;;;3.20;95.50;;;;;;4992961;28;20191;-63
2023/03/01 08:12:58;;;;;;;15.73;7.70;;;3.40;95.10;;;;;;4992553;28;20184;-63
2023/03/01 08:15:23;;;;;;;17.40;7.20;;;3.70;94.60;;;;;;4993383;28;20188;-63
2023/03/01 08:17:50;;;;;;;17.67;8.50;;;3.60;94.20;;;;;;4992392;28;20199;-63
2023/03/01 08:20:16;;;;;;;18.70;8.30;;;3.90;93.90;;;;;;4993823;28;20203;-63
2023/03/01 08:22:42;;;;;;;14.13;7.13;;;4.20;93.80;;;;;;4992317;28;20463;-63
2023/03/01 08:25:08;;;;;;;23.83;8.37;;;4.60;92.80;;;;;;4992545;28;20449;-63
2023/03/01 08:27:33;;;;;;;28.03;7.80;;;4.40;92.30;;;;;;4992581;28;20180;-63
2023/03/01 08:29:59;;;;;;;19.80;8.17;;;4.20;92.70;;;;;;4991959;28;20438;-63
2023/03/01 08:32:24;;;;;;;15.67;7.67;;;3.90;93.00;;;;;;4991665;28;20183;-63
2023/03/01 08:34:50;;;;;;;14.00;7.00;;;3.70;92.70;;;;;;4989978;28;20195;-63
2023/03/01 08:37:16;;;;;;;16.23;7.57;;;4.30;92.60;;;;;;4991642;28;20219;-63
2023/03/01 08:39:41;;;;;;;18.27;8.13;;;4.20;91.90;;;;;;4991311;28;20211;-63
2023/03/01 08:42:07;;;;;;;13.43;7.77;;;4.40;91.90;;;;;;4992527;28;20199;-63
2023/03/01 08:44:33;;;;;;;16.23;7.33;;;4.40;91.80;;;;;;4991797;28;20194;-63
2023/03/01 08:46:59;;;;;;;16.80;8.00;;;4.60;91.40;;;;;;4990146;28;20208;-63
2023/03/01 08:49:25;;;;;;;21.17;7.90;;;4.30;90.90;;;;;;4987686;28;20873;-63
2023/03/01 08:51:51;;;;;;;12.20;7.07;;;4.10;91.60;;;;;;4990443;28;20430;-63
2023/03/01 08:54:21;;;;;;;15.73;8.07;;;4.20;92.00;;;;;;4992124;28;20192;-64
2023/03/01 08:56:47;;;;;;;12.73;7.87;;;4.30;91.70;;;;;;4991842;28;20223;-63
2023/03/01 08:59:15;;;;;;;16.57;8.43;;;4.20;91.30;;;;;;4991932;28;20752;-63
2023/03/01 09:01:43;;;;;;;16.17;8.57;;;4.50;91.30;;;;;;4990926;28;20462;-63
2023/03/01 09:04:09;;;;;;;20.83;8.83;;;4.60;91.00;;;;;;4991429;28;20419;-64
2023/03/01 09:06:34;;;;;;;14.53;7.03;;;4.40;91.50;;;;;;4991010;28;20430;-64
2023/03/01 09:09:01;;;;;;;14.80;6.90;;;4.50;91.30;;;;;;4991631;28;20426;-64
2023/03/01 09:11:28;;;;;;;20.53;8.20;;;4.90;90.70;;;;;;4974151;28;20195;-64
2023/03/01 09:13:54;;;;;;;15.10;7.00;;;4.50;90.70;;;;;;4991503;28;20450;-64
2023/03/01 09:16:20;;;;;;;15.80;7.70;;;4.60;90.90;;;;;;4991174;28;20434;-64
2023/03/01 09:18:53;;;;;;;19.33;9.33;;;4.60;91.20;;;;;;4991588;28;20219;-64
2023/03/01 09:21:22;;;;;;;24.03;8.20;;;5.10;90.40;;;;;;4991345;28;20423;-65
2023/03/01 09:23:48;;;;;;;26.47;8.83;;;4.60;90.60;;;;;;4991381;28;20423;-66
2023/03/01 09:26:18;;;;;;;14.90;7.70;;;4.00;90.80;;;;;;4991551;28;20426;-63
2023/03/01 09:28:44;;;;;;;20.50;8.20;;;4.10;91.20;;;;;;4993592;28;20168;-64
2023/03/01 09:31:12;;;;;;;16.87;8.67;;;3.90;91.20;;;;;;4993228;28;20462;-63
2023/03/01 09:33:39;;;;;;;17.50;8.37;;;3.70;91.90;;;;;;4991996;28;20418;-64
2023/03/01 09:36:07;;;;;;;22.73;8.93;;;3.50;92.20;;;;;;4991841;28;20431;-64
2023/03/01 09:38:34;;;;;;;19.27;8.00;;;3.40;92.30;;;;;;4988956;28;20904;-63
2023/03/01 09:41:02;;;;;;;25.17;9.40;;;3.30;92.50;;;;;;4991791;28;20563;-63
2023/03/01 09:43:30;;;;;;;20.20;9.40;;;3.10;92.40;;;;;;4971014;28;20463;-63
2023/03/01 09:46:02;;;;;;;19.03;8.30;;;2.90;92.90;;;;;;4991905;28;20430;-63
2023/03/01 09:48:55;;;;;;;17.07;7.77;;;2.70;93.90;;;;;;4992167;28;20470;-63
2023/03/01 09:51:33;;;;;;;16.87;7.90;;;2.70;93.60;;;;;;4990873;28;20442;-63
2023/03/01 09:54:00;;;;;;;18.63;9.20;;;2.50;93.70;;;;;;4991942;28;20518;-63
2023/03/01 09:56:42;;;;;;;15.53;8.27;;;2.40;93.80;;;;;;4988660;28;20419;-63
2023/03/01 09:59:13;;;;;;;20.63;8.17;;;2.60;93.70;;;;;;4991532;28;20426;-63
2023/03/01 10:01:57;;;;;;;14.17;7.87;;;2.70;93.60;;;;;;4990791;28;20845;-63
2023/03/01 10:04:41;;;;;;;14.97;8.23;;;2.80;93.20;;;;;;4991379;28;20505;-63
2023/03/01 10:07:09;;;;;;;22.83;8.03;;;2.90;93.70;;;;;;4991616;28;20904;-63
2023/03/01 10:09:41;;;;;;;21.97;8.30;;;3.10;93.30;;;;;;4996427;28;20410;-63
2023/03/01 10:12:16;;;;;;;13.73;8.67;;;3.00;93.10;;;;;;4991327;28;20426;-63
2023/03/01 10:15:12;;;;;;;15.40;7.57;;;3.10;93.10;;;;;;4991671;28;20426;-63
2023/03/01 10:17:56;;;;;;;15.57;8.07;;;3.20;93.00;;;;;;4992017;28;20431;-63
2023/03/01 10:20:29;;;;;;;16.63;7.00;;;3.30;93.10;;;;;;4994865;28;20425;-63
2023/03/01 10:22:55;;;;;;;17.97;7.40;;;3.40;92.60;;;;;;4991383;28;20459;-64
2023/03/01 10:25:42;;;;;;;23.70;9.23;;;3.50;92.70;;;;;;4995619;28;20434;-64
2023/03/01 10:28:43;;;;;;;21.93;8.10;;;3.60;92.50;;;;;;4995742;28;20227;-63
2023/03/01 10:31:28;;;;;;;15.47;8.50;;;3.70;92.10;;;;;;4995065;28;20426;-63
2023/03/01 10:33:56;;;;;;;17.00;9.03;;;3.70;92.20;;;;;;4993689;28;20466;-63
2023/03/01 10:36:24;;;;;;;16.33;6.57;;;3.70;92.40;;;;;;4990901;28;20446;-63
2023/03/01 10:38:53;;;;;;;22.10;8.90;;;3.70;92.20;;;;;;4995198;28;21042;-63
2023/03/01 10:41:23;;;;;;;24.47;8.63;;;3.70;92.00;;;;;;4994800;28;20439;-63
2023/03/01 10:43:55;;;;;;;17.53;7.40;;;3.80;92.00;;;;;;4995100;28;20517;-63
2023/03/01 10:46:33;;;;;;;18.33;9.00;;;4.00;92.00;;;;;;4994005;28;20918;-63
2023/03/01 10:49:18;;;;;;;14.77;7.80;;;4.00;91.70;;;;;;4991730;28;20433;-63
2023/03/01 10:51:46;;;;;;;14.97;7.70;;;4.10;91.90;;;;;;4991816;28;20501;-63
2023/03/01 10:54:31;;;;;;;19.87;9.00;;;4.00;91.70;;;;;;4995070;28;20464;-63
2023/03/01 10:56:59;;;;;;;17.20;7.43;;;4.20;92.10;;;;;;4994766;28;20418;-63
2023/03/01 10:59:27;;;;;;;15.47;7.73;;;4.40;91.50;;;;;;4992785;28;20907;-63
2023/03/01 11:02:21;;;;;;;13.93;7.10;;;4.40;91.50;;;;;;4994007;28;20482;-63
2023/03/01 11:05:17;;;;;;;18.63;8.37;;;4.40;91.50;;;;;;4992578;28;20430;-63
2023/03/01 11:07:56;;;;;;;15.13;7.40;;;4.50;91.70;;;;;;4991131;28;20422;-63
2023/03/01 11:10:29;;;;;;;23.83;7.43;;;4.70;91.30;;;;;;4992185;28;20481;-63
2023/03/01 11:13:19;;;;;;;23.90;8.97;;;4.90;90.50;;;;;;4992690;28;20433;-63
2023/03/01 11:16:03;;;;;;;14.03;7.63;;;4.90;90.60;;;;;;4992199;28;20990;-63
2023/03/01 11:18:30;;;;;;;17.50;7.50;;;5.10;90.60;;;;;;4988564;28;20537;-63
2023/03/01 11:20:57;;;;;;;14.80;6.90;;;5.20;90.20;;;;;;4993260;28;21237;-63
2023/03/01 11:23:23;;;;;;;15.67;7.43;;;5.20;90.20;;;;;;4993702;28;21264;-63
2023/03/01 11:25:56;;;;;;;18.43;8.13;;;5.30;89.90;;;;;;4993697;28;20884;-63
2023/03/01 11:28:22;;;;;;;17.83;8.03;;;5.20;90.10;;;;;;4993146;28;20947;-62
2023/03/01 11:30:48;;;;;;;18.93;7.20;;;5.20;90.00;;;;;;4993181;28;20413;-63
2023/03/01 11:33:33;;;;;;;15.33;8.13;;;5.10;90.50;;;;;;4992553;28;20419;-63
2023/03/01 11:36:15;;;;;;;18.57;7.47;;;5.40;90.10;;;;;;4989525;28;20183;-63
2023/03/01 11:38:42;;;;;;;20.37;8.23;;;5.50;89.00;;;;;;4991013;28;21052;-63
2023/03/01 11:41:28;;;;;;;18.80;7.73;;;5.40;90.40;;;;;;4993074;28;20443;-63
2023/03/01 11:44:01;;;;;;;14.40;7.87;;;5.30;90.10;;;;;;4988424;28;20767;-63
2023/03/01 11:46:33;;;;;;;18.50;7.97;;;5.50;90.00;;;;;;4990302;28;20411;-63
2023/03/01 11:49:23;;;;;;;16.63;7.43;;;5.80;89.30;;;;;;4992492;28;20415;-63
2023/03/01 11:52:00;;;;;;;15.90;7.30;;;5.70;88.50;;;;;;4990301;28;20875;-63
2023/03/01 11:54:47;;;;;;;14.50;7.10;;;5.70;88.90;;;;;;4988218;28;20462;-63
2023/03/01 11:57:41;;;;;;;15.60;7.67;;;5.90;89.00;;;;;;4992236;28;20418;-63
2023/03/01 12:00:25;;;;;;;18.77;8.50;;;6.00;88.10;;;;;;4992343;28;20422;-63
2023/03/01 12:03:10;;;;;;;13.60;6.73;;;6.00;87.70;;;;;;4974546;28;20466;-63
2023/03/01 12:05:58;;;;;;;15.83;7.70;;;6.20;87.60;;;;;;4987735;28;20403;-63
2023/03/01 12:08:49;;;;;;;15.20;7.63;;;6.20;87.80;;;;;;4992704;28;20897;-60
2023/03/01 12:11:55;;;;;;;12.40;6.53;;;6.30;87.30;;;;;;4990666;28;20415;-60
2023/03/01 12:14:38;;;;;;;15.27;8.67;;;6.70;86.30;;;;;;4991477;28;20419;-62
2023/03/01 12:17:41;;;;;;;17.23;7.43;;;6.70;85.40;;;;;;4991524;28;20550;-62
2023/03/01 12:20:22;;;;;;;14.40;7.57;;;6.30;86.30;;;;;;4990054;28;20457;-63
2023/03/01 12:22:56;;;;;;;23.63;8.63;;;6.40;87.10;;;;;;4991023;28;20471;-63
2023/03/01 12:25:34;;;;;;;22.57;8.30;;;6.50;87.30;;;;;;4992019;28;20477;-63
2023/03/01 12:28:12;;;;;;;22.53;8.00;;;6.60;85.40;;;;;;4991886;28;20419;-63
2023/03/01 12:31:11;;;;;;;15.83;7.00;;;6.70;85.10;;;;;;4989080;28;20560;-63
2023/03/01 12:34:12;;;;;;;16.10;7.53;;;6.60;85.60;;;;;;4991038;28;20418;-63
2023/03/01 12:36:40;;;;;;;21.23;7.97;;;6.70;85.00;;;;;;4986195;28;20440;-63
2023/03/01 12:39:37;;;;;;;16.00;7.13;;;6.90;84.70;;;;;;4991083;28;20433;-63
2023/03/01 12:42:23;;;;;;;19.43;7.43;;;6.90;83.90;;;;;;4928883;28;20501;-65
2023/03/01 12:45:02;;;;;;;13.33;6.90;;;6.90;83.90;;;;;;4977639;28;20510;-63
2023/03/01 12:47:44;;;;;;;12.87;8.10;;;6.90;84.20;;;;;;4983863;28;20450;-63
2023/03/01 12:50:23;;;;;;;17.77;7.17;;;6.90;83.80;;;;;;4990139;28;20415;-63
2023/03/01 12:52:55;;;;;;;20.00;7.00;;;6.90;84.40;;;;;;4990835;28;20439;-63
2023/03/01 12:55:35;;;;;;;12.27;7.23;;;6.90;84.50;;;;;;4991968;28;20427;-63
2023/03/01 12:58:24;;;;;;;15.57;6.67;;;6.90;83.60;;;;;;4992436;28;20469;-63